createdAt,value
2023-03-02T00:04:20.797Z,16.67
2023-03-02T00:09:22.394Z,16.40
2023-03-02T00:14:23.899Z,18.85
2023-03-02T00:19:26.457Z,18.15
2023-03-02T00:24:27.954Z,19.70
2023-03-02T00:29:29.370Z,19.45
2023-03-02T00:34:33.747Z,17.27
2023-03-02T00:39:35.202Z,18.38
2023-03-02T00:44:36.642Z,19.15
2023-03-02T00:49:38.396Z,20.63
2023-03-02T00:54:39.841Z,19.50
2023-03-02T00:59:41.386Z,23.00
2023-03-02T01:04:44.469Z,21.10
2023-03-02T01:09:45.980Z,20.63
2023-03-02T01:14:49.008Z,22.10
2023-03-02T01:19:50.752Z,21.63
2023-03-02T01:24:53.353Z,21.77
2023-03-02T01:29:55.081Z,20.08
2023-03-02T01:34:56.508Z,21.80
2023-03-02T01:39:57.906Z,19.35
2023-03-02T01:44:59.483Z,18.58
2023-03-02T01:50:21.181Z,20.80
2023-03-02T01:55:25.891Z,20.77
2023-03-02T02:00:31.866Z,19.52
2023-03-02T02:05:33.313Z,19.88
2023-03-02T02:10:35.850Z,21.33
2023-03-02T02:15:38.974Z,20.58
2023-03-02T02:20:45.217Z,20.25
2023-03-02T02:25:49.697Z,19.98
2023-03-02T02:31:04.459Z,21.52
2023-03-02T02:36:10.106Z,19.38
2023-03-02T02:41:19.279Z,21.27
2023-03-02T02:46:20.904Z,20.85
2023-03-02T02:51:27.112Z,19.88
2023-03-02T02:56:35.080Z,21.42
2023-03-02T03:01:36.801Z,20.90
2023-03-02T03:06:48.718Z,20.00
2023-03-02T03:12:17.779Z,21.75
2023-03-02T03:17:19.263Z,22.00
2023-03-02T03:22:20.726Z,20.92
2023-03-02T03:27:22.150Z,20.95
2023-03-02T03:32:23.678Z,22.02
2023-03-02T03:37:25.251Z,20.60
2023-03-02T03:42:27.198Z,19.92
2023-03-02T03:47:28.649Z,21.02
2023-03-02T03:52:33.257Z,21.67
2023-03-02T03:57:34.712Z,21.15
2023-03-02T04:02:37.742Z,22.35
2023-03-02T04:07:40.109Z,19.85
2023-03-02T04:12:42.535Z,19.92
2023-03-02T04:17:45.020Z,22.42
2023-03-02T04:22:48.812Z,21.02
2023-03-02T04:27:52.956Z,20.38
2023-03-02T04:32:54.798Z,20.75
2023-03-02T04:37:56.251Z,22.40
2023-03-02T04:42:57.670Z,21.92
2023-03-02T04:47:59.364Z,21.95
2023-03-02T04:53:00.816Z,23.58
2023-03-02T04:58:02.278Z,22.83
2023-03-02T05:03:04.169Z,21.73
2023-03-02T05:08:05.686Z,23.00
2023-03-02T05:13:07.333Z,21.23
2023-03-02T05:18:10.849Z,21.63
2023-03-02T05:23:25.158Z,22.95
2023-03-02T05:28:27.781Z,24.17
2023-03-02T05:33:30.091Z,22.33
2023-03-02T05:38:31.801Z,23.15
2023-03-02T05:43:33.323Z,23.52
2023-03-02T05:48:34.952Z,23.88
2023-03-02T05:53:36.486Z,23.58
2023-03-02T05:58:37.938Z,24.15
2023-03-02T06:03:39.349Z,25.13
2023-03-02T06:08:41.980Z,22.95
2023-03-02T06:13:43.526Z,20.40
2023-03-02T06:18:44.944Z,23.80
2023-03-02T06:23:46.365Z,21.40
2023-03-02T06:28:52.461Z,20.77
2023-03-02T06:33:54.550Z,21.40
2023-03-02T06:38:56.034Z,22.13
2023-03-02T06:43:57.441Z,22.30
2023-03-02T06:48:58.848Z,20.63
2023-03-02T06:54:00.863Z,24.20
2023-03-02T06:59:02.314Z,19.60
2023-03-02T07:04:03.919Z,20.73
2023-03-02T07:09:05.384Z,21.00
2023-03-02T07:14:06.993Z,21.88
2023-03-02T07:19:13.712Z,20.23
2023-03-02T07:24:15.140Z,19.83
2023-03-02T07:29:16.646Z,20.48
2023-03-02T07:34:18.568Z,19.38
2023-03-02T07:39:20.374Z,19.00
2023-03-02T07:44:21.795Z,20.10
2023-03-02T07:49:23.233Z,21.27
2023-03-02T07:54:26.495Z,21.65
2023-03-02T07:59:28.856Z,19.45
2023-03-02T08:04:30.285Z,19.75
2023-03-02T08:09:31.781Z,21.60
2023-03-02T08:14:33.204Z,20.02
2023-03-02T08:19:34.791Z,20.13
2023-03-02T08:24:37.204Z,20.88
2023-03-02T08:29:38.649Z,19.67
2023-03-02T08:34:40.073Z,21.05
2023-03-02T08:39:41.481Z,21.67
2023-03-02T08:44:42.896Z,19.80
2023-03-02T08:49:45.561Z,18.02
2023-03-02T08:54:47.841Z,19.30
2023-03-02T08:59:49.363Z,20.48
2023-03-02T09:04:50.861Z,20.20
2023-03-02T09:09:52.309Z,18.00
2023-03-02T09:14:53.708Z,19.67
2023-03-02T09:19:55.135Z,18.50
2023-03-02T09:24:56.547Z,19.77
2023-03-02T09:29:58.057Z,19.80
2023-03-02T09:34:59.490Z,19.15
2023-03-02T09:40:00.959Z,19.00
2023-03-02T09:45:30.214Z,19.15
2023-03-02T09:50:35.960Z,17.30
2023-03-02T09:55:38.184Z,18.50
2023-03-02T10:00:43.899Z,18.45
2023-03-02T10:05:50.995Z,19.48
2023-03-02T10:11:18.079Z,18.00
2023-03-02T10:16:39.469Z,17.40
2023-03-02T10:21:44.820Z,16.58
2023-03-02T10:26:50.364Z,17.05
2023-03-02T10:32:06.499Z,17.40
2023-03-02T10:37:16.420Z,16.40
2023-03-02T10:42:32.062Z,17.33
2023-03-02T10:47:33.598Z,16.83
2023-03-02T10:52:35.016Z,16.73
2023-03-02T10:57:42.097Z,17.23
2023-03-02T11:02:57.379Z,16.92
2023-03-02T11:08:08.816Z,16.90
2023-03-02T11:13:28.195Z,17.45
2023-03-02T11:18:38.105Z,17.48
2023-03-02T11:23:45.493Z,18.97
2023-03-02T11:29:22.724Z,17.05
2023-03-02T11:34:43.254Z,16.73
2023-03-02T11:39:55.212Z,17.42
2023-03-02T11:45:02.042Z,16.00
2023-03-02T11:50:07.344Z,17.95
2023-03-02T11:55:11.959Z,16.90
2023-03-02T12:00:33.650Z,17.80
2023-03-02T12:05:39.031Z,18.02
2023-03-02T12:10:44.125Z,17.75
2023-03-02T12:15:50.949Z,16.88
2023-03-02T12:21:02.012Z,16.80
2023-03-02T12:26:29.534Z,18.00
2023-03-02T12:31:47.457Z,16.88
2023-03-02T12:36:50.634Z,17.02
2023-03-02T12:42:22.283Z,16.23
2023-03-02T12:47:29.763Z,15.15
2023-03-02T12:52:35.617Z,16.98
2023-03-02T12:57:46.632Z,17.75
2023-03-02T13:02:50.872Z,16.23
2023-03-02T13:08:03.298Z,16.15
2023-03-02T13:13:16.496Z,14.98
2023-03-02T13:18:20.030Z,16.60
2023-03-02T13:23:22.203Z,16.52
2023-03-02T13:28:31.529Z,16.92
2023-03-02T13:33:35.418Z,16.88
2023-03-02T13:38:38.424Z,16.17
2023-03-02T13:43:40.208Z,16.95
2023-03-02T13:48:41.825Z,16.33
2023-03-02T13:53:50.917Z,16.75
2023-03-02T13:58:52.453Z,15.82
2023-03-02T14:03:55.435Z,16.08
2023-03-02T14:08:58.632Z,15.30
2023-03-02T14:14:02.110Z,17.40
2023-03-02T14:19:04.058Z,17.90
2023-03-02T14:24:06.269Z,16.35
2023-03-02T14:29:21.634Z,17.25
2023-03-02T14:34:23.480Z,15.05
2023-03-02T14:39:35.308Z,17.20
2023-03-02T14:44:36.944Z,17.23
2023-03-02T14:49:39.121Z,16.52
2023-03-02T14:54:44.805Z,16.42
2023-03-02T14:59:47.017Z,15.82
2023-03-02T15:04:52.699Z,17.20
2023-03-02T15:09:56.155Z,14.90
2023-03-02T15:14:57.630Z,16.45
2023-03-02T15:19:59.542Z,17.35
2023-03-02T15:25:00.980Z,14.50
2023-03-02T15:30:02.494Z,14.40
2023-03-02T15:35:04.703Z,15.30
2023-03-02T15:40:06.932Z,15.32
2023-03-02T15:45:08.623Z,13.13
2023-03-02T15:50:11.073Z,16.15
2023-03-02T15:55:15.627Z,14.30
2023-03-02T16:00:18.019Z,14.93
2023-03-02T16:05:19.566Z,14.13
2023-03-02T16:10:21.246Z,15.18
2023-03-02T16:15:22.881Z,13.50
2023-03-02T16:20:24.588Z,14.90
2023-03-02T16:25:26.026Z,16.90
2023-03-02T16:30:27.756Z,16.77
2023-03-02T16:35:34.268Z,18.30
2023-03-02T16:40:37.246Z,19.85
2023-03-02T16:45:38.750Z,18.17
2023-03-02T16:50:43.394Z,20.70
2023-03-02T16:55:44.797Z,18.48
2023-03-02T17:00:46.445Z,19.85
2023-03-02T17:05:48.638Z,21.10
2023-03-02T17:10:50.084Z,18.45
2023-03-02T17:15:51.592Z,21.10
2023-03-02T17:20:55.168Z,20.33
2023-03-02T17:25:57.410Z,21.33
2023-03-02T17:31:00.514Z,21.23
2023-03-02T17:36:07.644Z,21.48
2023-03-02T17:41:11.578Z,21.48
2023-03-02T17:46:20.486Z,23.90
2023-03-02T17:51:23.316Z,20.13
2023-03-02T17:56:26.737Z,20.98
2023-03-02T18:01:29.841Z,21.42
2023-03-02T18:06:31.846Z,22.48
2023-03-02T18:11:33.599Z,23.05
2023-03-02T18:16:35.576Z,22.65
2023-03-02T18:21:38.470Z,23.77
2023-03-02T18:26:40.002Z,22.60
2023-03-02T18:31:41.639Z,23.00
2023-03-02T18:36:43.114Z,21.80
2023-03-02T18:41:44.634Z,21.58
2023-03-02T18:46:46.508Z,22.65
2023-03-02T18:51:48.536Z,24.08
2023-03-02T18:56:49.977Z,23.63
2023-03-02T19:01:51.469Z,21.73
2023-03-02T19:06:55.632Z,24.45
2023-03-02T19:11:57.062Z,25.10
2023-03-02T19:16:58.671Z,24.00
2023-03-02T19:22:01.102Z,25.73
2023-03-02T19:27:02.727Z,26.13
2023-03-02T19:32:04.736Z,24.35
2023-03-02T19:37:06.200Z,24.00
2023-03-02T19:42:07.787Z,22.83
2023-03-02T19:47:09.328Z,22.00
2023-03-02T19:52:10.764Z,23.20
2023-03-02T19:57:12.273Z,22.42
2023-03-02T20:02:15.056Z,23.08
2023-03-02T20:07:16.538Z,24.08
2023-03-02T20:12:18.127Z,24.25
2023-03-02T20:17:20.856Z,22.13
2023-03-02T20:22:25.841Z,21.42
2023-03-02T20:27:27.297Z,23.00
2023-03-02T20:32:30.039Z,23.08
2023-03-02T20:37:31.756Z,24.45
2023-03-02T20:42:34.074Z,23.25
2023-03-02T20:47:35.633Z,20.63
2023-03-02T20:52:37.740Z,21.55
2023-03-02T20:57:39.773Z,21.55
2023-03-02T21:02:41.467Z,23.00
2023-03-02T21:07:43.569Z,23.30
2023-03-02T21:12:45.692Z,22.33
2023-03-02T21:17:47.514Z,22.38
2023-03-02T21:22:49.051Z,23.42
2023-03-02T21:27:50.525Z,22.50
2023-03-02T21:32:51.959Z,23.40
2023-03-02T21:37:57.191Z,22.55
2023-03-02T21:43:00.369Z,22.98
2023-03-02T21:48:02.307Z,23.73
2023-03-02T21:53:04.294Z,23.15
2023-03-02T21:58:06.192Z,21.85
2023-03-02T22:03:07.848Z,22.92
2023-03-02T22:08:13.504Z,24.05
2023-03-02T22:13:23.930Z,23.90
2023-03-02T22:18:27.041Z,22.55
2023-03-02T22:23:28.566Z,23.25
2023-03-02T22:28:30.207Z,22.95
2023-03-02T22:33:33.925Z,20.33
2023-03-02T22:38:35.415Z,22.83
2023-03-02T22:43:36.867Z,22.73
2023-03-02T22:48:38.604Z,23.98
2023-03-02T22:53:46.368Z,22.60
2023-03-02T22:58:50.134Z,20.35
2023-03-02T23:04:12.949Z,21.40
2023-03-02T23:09:23.930Z,22.80
2023-03-02T23:14:28.580Z,34.92
2023-03-02T23:19:31.422Z,24.20
2023-03-02T23:24:32.857Z,23.75
2023-03-02T23:29:35.077Z,21.02
2023-03-02T23:34:36.518Z,19.73
2023-03-02T23:39:37.938Z,20.55
2023-03-02T23:44:39.426Z,19.90
2023-03-02T23:49:40.919Z,19.08
2023-03-02T23:54:43.340Z,21.50
2023-03-02T23:59:44.762Z,22.73
